| time (UTC) | temp F | wind direction | speed MPH | gust MPH | rain 1hr in | rain 24hr in | rain mn in | humidity % | barometer mb |
| 20260510175053 | 68 | 187 | 1.0 | 1.0 | 0.00 | 0.00 | 0.00 | 72 | 1010.8 |
| 20260510174551 | 68 | 245 | 1.0 | 2.0 | 0.00 | 0.00 | 0.00 | 71 | 1010.7 |
| 20260510174048 | 68 | 198 | 2.0 | 2.0 | 0.00 | 0.00 | 0.00 | 71 | 1010.5 |
| 20260510173543 | 69 | 50 | 3.0 | 5.0 | 0.00 | 0.00 | 0.00 | 71 | 1010.3 |
| 20260510173040 | 67 | 193 | 1.0 | 2.0 | 0.00 | 0.00 | 0.00 | 73 | 1010.7 |
| 20260510172536 | 67 | 349 | 1.0 | 2.0 | 0.00 | 0.00 | 0.00 | 73 | 1010.9 |
| 20260510172033 | 69 | 161 | 2.0 | 3.0 | 0.00 | 0.00 | 0.00 | 71 | 1010.9 |
| 20260510171529 | 69 | 174 | 4.0 | 5.0 | 0.00 | 0.00 | 0.00 | 70 | 1010.7 |
| 20260510171027 | 69 | 348 | 1.0 | 1.0 | 0.00 | 0.00 | 0.00 | 71 | 1010.8 |
| 20260510170523 | 69 | 157 | 5.0 | 6.0 | 0.00 | 0.00 | 0.00 | 72 | 1010.7 |
| 20260510170020 | 68 | 115 | 2.0 | 3.0 | 0.00 | 0.00 | 0.00 | 73 | 1010.9 |
| 20260510165515 | 69 | 187 | 2.0 | 2.0 | 0.00 | 0.00 | 0.00 | 71 | 1010.9 |
| 20260510165012 | 68 | 218 | 2.0 | 2.0 | 0.00 | 0.00 | 0.00 | 71 | 1011.1 |
| 20260510164509 | 68 | 179 | 3.0 | 5.0 | 0.00 | 0.00 | 0.00 | 73 | 1011.1 |
| 20260510164005 | 68 | 26 | 0.0 | 1.0 | 0.00 | 0.00 | 0.00 | 72 | 1011.2 |
| 20260510163501 | 68 | 111 | 5.0 | 8.0 | 0.00 | 0.00 | 0.00 | 73 | 1011.3 |
| 20260510162956 | 67 | 267 | 1.0 | 2.0 | 0.00 | 0.00 | 0.00 | 73 | 1011.3 |
| 20260510162453 | 67 | 170 | 2.0 | 2.0 | 0.00 | 0.00 | 0.00 | 73 | 1011.4 |
| 20260510161949 | 66 | 47 | 2.0 | 3.0 | 0.00 | 0.00 | 0.00 | 75 | 1011.5 |
| 20260510161445 | 64 | 251 | 2.0 | 2.0 | 0.00 | 0.00 | 0.00 | 76 | 1011.5 |
| 20260510160942 | 65 | 295 | 2.0 | 2.0 | 0.00 | 0.00 | 0.00 | 77 | 1011.5 |
| 20260510160439 | 66 | 214 | 2.0 | 3.0 | 0.00 | 0.00 | 0.00 | 76 | 1011.4 |
| 20260510155937 | 66 | 157 | 2.0 | 3.0 | 0.00 | 0.00 | 0.00 | 76 | 1011.6 |
| 20260510155435 | 65 | 233 | 3.0 | 3.0 | 0.00 | 0.00 | 0.00 | 77 | 1011.5 |
| 20260510154931 | 65 | 55 | 0.0 | 1.0 | 0.00 | 0.00 | 0.00 | 77 | 1011.8 |
| 20260510154427 | 65 | 178 | 2.0 | 2.0 | 0.00 | 0.00 | 0.00 | 76 | 1011.8 |
| 20260510153926 | 66 | 139 | 5.0 | 7.0 | 0.00 | 0.00 | 0.00 | 77 | 1011.6 |
| 20260510153423 | 65 | 39 | 2.0 | 2.0 | 0.00 | 0.00 | 0.00 | 79 | 1012.0 |
| 20260510152919 | 64 | 96 | 7.0 | 8.0 | 0.00 | 0.00 | 0.00 | 79 | 1011.7 |
| 20260510152417 | 64 | 329 | 2.0 | 3.0 | 0.00 | 0.00 | 0.00 | 82 | 1011.9 |
| 20260510151913 | 62 | 29 | 0.0 | 1.0 | 0.00 | 0.00 | 0.00 | 81 | 1012.0 |
| 20260510151411 | 62 | 194 | 2.0 | 2.0 | 0.00 | 0.00 | 0.00 | 84 | 1012.1 |
| 20260510150907 | 61 | 299 | 1.0 | 2.0 | 0.00 | 0.00 | 0.00 | 84 | 1012.0 |
| 20260510150402 | 62 | 172 | 4.0 | 5.0 | 0.00 | 0.00 | 0.00 | 84 | 1011.9 |
| 20260510145858 | 62 | 206 | 2.0 | 3.0 | 0.00 | 0.00 | 0.00 | 84 | 1011.8 |
| 20260510145355 | 60 | 103 | 1.0 | 1.0 | 0.00 | 0.00 | 0.00 | 85 | 1011.9 |
| 20260510144852 | 59 | 256 | 1.0 | 2.0 | 0.00 | 0.00 | 0.00 | 87 | 1012.0 |
| 20260510144349 | 59 | 141 | 2.0 | 2.0 | 0.00 | 0.00 | 0.00 | 88 | 1011.9 |
| 20260510143843 | 59 | 141 | 3.0 | 5.0 | 0.00 | 0.00 | 0.00 | 88 | 1011.8 |
| 20260510143340 | 57 | 98 | 3.0 | 5.0 | 0.00 | 0.00 | 0.00 | 92 | 1012.1 |
| 20260510142837 | 56 | 217 | 2.0 | 2.0 | 0.00 | 0.00 | 0.00 | 94 | 1012.0 |
| 20260510142333 | 55 | 36 | 1.0 | 1.0 | 0.00 | 0.00 | 0.00 | 95 | 1012.1 |
| 20260510141830 | 56 | 98 | 3.0 | 3.0 | 0.00 | 0.00 | 0.00 | 98 | 1012.0 |
| 20260510141327 | 55 | 338 | 1.0 | 1.0 | 0.00 | 0.00 | 0.00 | 99 | 1011.9 |
| 20260510140825 | 55 | 208 | 0.0 | 1.0 | 0.00 | 0.00 | 0.00 | 99 | 1012.1 |
| 20260510140320 | 54 | 342 | 0.0 | 1.0 | 0.00 | 0.00 | 0.00 | 99 | 1011.9 |
| 20260510135813 | 54 | 203 | 1.0 | 2.0 | 0.00 | 0.00 | 0.00 | 99 | 1012.1 |
| 20260510135310 | 55 | 33 | 0.0 | 1.0 | 0.00 | 0.00 | 0.00 | 99 | 1012.1 |
| 20260510134808 | 54 | 55 | 1.0 | 1.0 | 0.00 | 0.00 | 0.00 | 99 | 1012.2 |
| 20260510134304 | 53 | 81 | 1.0 | 1.0 | 0.00 | 0.00 | 0.00 | 99 | 1011.9 |
| 20260510133800 | 53 | 29 | 0.0 | 0.0 | 0.00 | 0.00 | 0.00 | 99 | 1012.1 |
| 20260510133256 | 53 | 57 | 0.0 | 1.0 | 0.00 | 0.00 | 0.00 | 99 | 1012.2 |
| 20260510132752 | 53 | 44 | 0.0 | 1.0 | 0.00 | 0.00 | 0.00 | 99 | 1012.1 |
| 20260510132250 | 53 | 17 | 0.0 | 0.0 | 0.00 | 0.00 | 0.00 | 99 | 1012.1 |
| 20260510131747 | 54 | 43 | 1.0 | 1.0 | 0.00 | 0.00 | 0.00 | 99 | 1012.2 |
| 20260510131245 | 53 | 354 | 1.0 | 1.0 | 0.00 | 0.00 | 0.00 | 99 | 1012.1 |
| 20260510130740 | 53 | 29 | 0.0 | 0.0 | 0.00 | 0.00 | 0.00 | 99 | 1011.9 |
| 20260510130238 | 53 | 34 | 0.0 | 0.0 | 0.00 | 0.00 | 0.00 | 99 | 1011.9 |
| 20260510125734 | 52 | 50 | 1.0 | 1.0 | 0.00 | 0.00 | 0.00 | 99 | 1011.8 |
| 20260510125230 | 52 | 178 | 0.0 | 0.0 | 0.00 | 0.00 | 0.00 | 99 | 1012.0 |
| 20260510124727 | 52 | 356 | 0.0 | 0.0 | 0.00 | 0.00 | 0.00 | 99 | 1012.0 |
| 20260510124225 | 52 | 30 | 0.0 | 0.0 | 0.00 | 0.00 | 0.00 | 99 | 1011.7 |
| 20260510123719 | 52 | 34 | 0.0 | 0.0 | 0.00 | 0.00 | 0.00 | 99 | 1011.6 |
| 20260510123216 | 52 | 34 | 0.0 | 0.0 | 0.00 | 0.00 | 0.00 | 99 | 1012.0 |
| 20260510122712 | 52 | 1 | 0.0 | 0.0 | 0.00 | 0.00 | 0.00 | 99 | 1011.9 |
| 20260510122209 | 52 | 49 | 0.0 | 0.0 | 0.00 | 0.00 | 0.00 | 99 | 1011.6 |
| 20260510121705 | 52 | 24 | 1.0 | 1.0 | 0.00 | 0.00 | 0.00 | 99 | 1011.7 |
| 20260510121203 | 52 | 358 | 0.0 | 0.0 | 0.00 | 0.00 | 0.00 | 99 | 1011.8 |
| 20260510120659 | 51 | 18 | 0.0 | 0.0 | 0.00 | 0.00 | 0.00 | 99 | 1011.7 |
| 20260510120156 | 51 | 21 | 1.0 | 1.0 | 0.00 | 0.00 | 0.00 | 99 | 1011.7 |
| 20260510115652 | 51 | 24 | 0.0 | 0.0 | 0.00 | 0.00 | 0.00 | 99 | 1011.9 |
| 20260510115150 | 51 | 18 | 0.0 | 0.0 | 0.00 | 0.00 | 0.00 | 99 | 1011.5 |
| 20260510114645 | 51 | 351 | 0.0 | 1.0 | 0.00 | 0.00 | 0.00 | 99 | 1011.6 |
| 20260510114142 | 51 | 12 | 0.0 | 0.0 | 0.00 | 0.00 | 0.00 | 99 | 1011.7 |
| 20260510113637 | 51 | 12 | 0.0 | 0.0 | 0.00 | 0.00 | 0.00 | 99 | 1011.7 |
| 20260510113134 | 51 | 12 | 0.0 | 0.0 | 0.00 | 0.00 | 0.00 | 99 | 1011.7 |
| 20260510112631 | 51 | 14 | 0.0 | 0.0 | 0.00 | 0.00 | 0.00 | 99 | 1011.7 |
| 20260510112128 | 51 | 14 | 0.0 | 0.0 | 0.00 | 0.00 | 0.00 | 99 | 1011.7 |
| 20260510111624 | 51 | 15 | 0.0 | 0.0 | 0.00 | 0.00 | 0.00 | 99 | 1011.7 |
| 20260510111120 | 51 | 14 | 0.0 | 0.0 | 0.00 | 0.00 | 0.00 | 99 | 1011.7 |
| 20260510110616 | 51 | 14 | 0.0 | 0.0 | 0.00 | 0.00 | 0.00 | 99 | 1011.8 |
| 20260510110113 | 51 | 19 | 0.0 | 0.0 | 0.00 | 0.00 | 0.00 | 99 | 1011.5 |
| 20260510105609 | 51 | 4 | 0.0 | 0.0 | 0.00 | 0.00 | 0.00 | 99 | 1011.4 |
| 20260510105103 | 51 | 4 | 0.0 | 0.0 | 0.00 | 0.00 | 0.00 | 99 | 1011.5 |
| 20260510104601 | 51 | 3 | 0.0 | 0.0 | 0.00 | 0.00 | 0.00 | 99 | 1011.3 |
| 20260510104057 | 50 | 3 | 0.0 | 0.0 | 0.00 | 0.00 | 0.00 | 99 | 1011.5 |
| 20260510103554 | 50 | 22 | 0.0 | 0.0 | 0.00 | 0.00 | 0.00 | 99 | 1011.3 |
| 20260510103050 | 50 | 341 | 0.0 | 1.0 | 0.00 | 0.00 | 0.00 | 99 | 1011.2 |
| 20260510102545 | 50 | 10 | 0.0 | 0.0 | 0.00 | 0.00 | 0.00 | 99 | 1011.0 |
| 20260510102042 | 50 | 10 | 0.0 | 0.0 | 0.00 | 0.00 | 0.00 | 99 | 1011.1 |
| 20260510101540 | 50 | 10 | 0.0 | 0.0 | 0.00 | 0.00 | 0.00 | 99 | 1011.0 |
| 20260510101038 | 50 | 13 | 0.0 | 1.0 | 0.00 | 0.00 | 0.00 | 99 | 1010.9 |
| 20260510100534 | 50 | 10 | 0.0 | 0.0 | 0.00 | 0.00 | 0.00 | 99 | 1011.0 |
| 20260510100031 | 50 | 5 | 0.0 | 0.0 | 0.00 | 0.00 | 0.00 | 99 | 1010.8 |
| 20260510095527 | 50 | 354 | 0.0 | 1.0 | 0.00 | 0.00 | 0.00 | 99 | 1010.8 |
| 20260510095026 | 50 | 8 | 0.0 | 0.0 | 0.00 | 0.00 | 0.00 | 99 | 1010.2 |
| 20260510094521 | 50 | 29 | 0.0 | 0.0 | 0.00 | 0.00 | 0.00 | 99 | 1010.1 |
| 20260510094017 | 50 | 297 | 1.0 | 1.0 | 0.00 | 0.00 | 0.00 | 99 | 1010.2 |
| 20260510093512 | 50 | 9 | 0.0 | 0.0 | 0.00 | 0.00 | 0.00 | 99 | 1010.2 |
| 20260510093010 | 50 | 31 | 0.0 | 0.0 | 0.00 | 0.00 | 0.00 | 99 | 1010.2 |
| 20260510092507 | 50 | 28 | 0.0 | 1.0 | 0.00 | 0.00 | 0.00 | 99 | 1010.4 |
| 20260510092006 | 50 | 9 | 0.0 | 0.0 | 0.00 | 0.00 | 0.00 | 99 | 1010.2 |
| 20260510091503 | 50 | 59 | 1.0 | 1.0 | 0.00 | 0.00 | 0.00 | 99 | 1010.3 |
| 20260510090959 | 50 | 6 | 0.0 | 0.0 | 0.00 | 0.00 | 0.00 | 99 | 1010.8 |
| 20260510090456 | 50 | 1 | 0.0 | 1.0 | 0.00 | 0.00 | 0.00 | 99 | 1010.4 |
| 20260510085952 | 50 | 28 | 0.0 | 0.0 | 0.00 | 0.00 | 0.00 | 99 | 1010.7 |
| 20260510085447 | 50 | 28 | 0.0 | 0.0 | 0.00 | 0.00 | 0.00 | 99 | 1010.4 |
| 20260510084943 | 50 | 28 | 0.0 | 0.0 | 0.00 | 0.00 | 0.00 | 99 | 1010.7 |
| 20260510084440 | 50 | 12 | 0.0 | 0.0 | 0.00 | 0.00 | 0.00 | 99 | 1010.5 |
| 20260510083937 | 50 | 10 | 0.0 | 0.0 | 0.00 | 0.00 | 0.00 | 99 | 1011.0 |
| 20260510083433 | 50 | 19 | 0.0 | 0.0 | 0.00 | 0.00 | 0.00 | 99 | 1010.8 |
| 20260510082928 | 50 | 17 | 0.0 | 0.0 | 0.00 | 0.00 | 0.00 | 99 | 1010.8 |
| 20260510082427 | 50 | 17 | 0.0 | 0.0 | 0.00 | 0.00 | 0.00 | 99 | 1010.5 |
| 20260510081925 | 50 | 18 | 0.0 | 0.0 | 0.00 | 0.00 | 0.00 | 99 | 1010.9 |
| 20260510081421 | 50 | 17 | 0.0 | 0.0 | 0.00 | 0.00 | 0.00 | 99 | 1011.1 |
| 20260510080918 | 50 | 25 | 0.0 | 0.0 | 0.00 | 0.00 | 0.00 | 99 | 1010.8 |
| 20260510080417 | 50 | 25 | 0.0 | 0.0 | 0.00 | 0.00 | 0.00 | 99 | 1010.9 |
| 20260510075914 | 50 | 36 | 0.0 | 1.0 | 0.00 | 0.00 | 0.00 | 99 | 1011.2 |
| 20260510075412 | 50 | 359 | 0.0 | 0.0 | 0.00 | 0.00 | 0.00 | 99 | 1011.0 |
| 20260510074908 | 50 | 358 | 0.0 | 0.0 | 0.00 | 0.00 | 0.00 | 99 | 1011.0 |
| 20260510074406 | 50 | 358 | 0.0 | 0.0 | 0.00 | 0.00 | 0.00 | 99 | 1011.1 |
| 20260510073902 | 50 | 359 | 0.0 | 0.0 | 0.00 | 0.00 | 0.00 | 99 | 1011.0 |
| 20260510073357 | 50 | 0 | 0.0 | 0.0 | 0.00 | 0.00 | 0.00 | 99 | 1011.0 |
| 20260510072854 | 50 | 0 | 0.0 | 0.0 | 0.00 | 0.00 | 0.00 | 99 | 1010.8 |
| 20260510072351 | 50 | 1 | 0.0 | 0.0 | 0.00 | 0.00 | 0.00 | 99 | 1010.7 |
| 20260510071847 | 50 | 1 | 0.0 | 0.0 | 0.00 | 0.00 | 0.00 | 99 | 1010.4 |
| 20260510071343 | 50 | 359 | 0.0 | 0.0 | 0.00 | 0.00 | 0.00 | 99 | 1010.4 |
| 20260510070842 | 50 | 4 | 0.0 | 0.0 | 0.00 | 0.00 | 0.00 | 99 | 1010.3 |
| 20260510070338 | 50 | 27 | 0.0 | 0.0 | 0.00 | 0.00 | 0.00 | 99 | 1010.1 |
| 20260510065833 | 50 | 26 | 0.0 | 0.0 | 0.00 | 0.00 | 0.00 | 99 | 1010.3 |
| 20260510065330 | 50 | 24 | 0.0 | 0.0 | 0.00 | 0.00 | 0.00 | 99 | 1010.3 |
| 20260510064827 | 51 | 24 | 0.0 | 0.0 | 0.00 | 0.00 | 0.00 | 99 | 1010.4 |
| 20260510064325 | 51 | 25 | 0.0 | 0.0 | 0.00 | 0.00 | 0.00 | 99 | 1010.4 |
| 20260510063821 | 51 | 33 | 0.0 | 0.0 | 0.00 | 0.00 | 0.00 | 99 | 1010.3 |
| 20260510063317 | 51 | 8 | 0.0 | 0.0 | 0.00 | 0.00 | 0.00 | 99 | 1010.3 |
| 20260510062814 | 51 | 9 | 0.0 | 0.0 | 0.00 | 0.00 | 0.00 | 99 | 1010.7 |
| 20260510062310 | 51 | 11 | 0.0 | 0.0 | 0.00 | 0.00 | 0.00 | 99 | 1010.5 |
| 20260510061805 | 51 | 11 | 0.0 | 0.0 | 0.00 | 0.00 | 0.00 | 99 | 1010.2 |
| 20260510061303 | 51 | 12 | 0.0 | 0.0 | 0.00 | 0.00 | 0.00 | 99 | 1010.3 |
| 20260510060758 | 50 | 12 | 0.0 | 0.0 | 0.00 | 0.00 | 0.00 | 99 | 1010.3 |
| 20260510060256 | 50 | 3 | 0.0 | 0.0 | 0.00 | 0.00 | 0.00 | 99 | 1010.2 |
| 20260510055752 | 50 | 342 | 1.0 | 1.0 | 0.00 | 0.00 | 0.00 | 99 | 1010.3 |
| 20260510055250 | 50 | 341 | 1.0 | 1.0 | 0.00 | 0.00 | 0.00 | 99 | 1010.0 |
| 20260510054750 | 50 | 347 | 0.0 | 0.0 | 0.00 | 0.00 | 0.00 | 99 | 1010.0 |
| 20260510054247 | 50 | 348 | 0.0 | 0.0 | 0.00 | 0.00 | 0.00 | 99 | 1010.3 |
| 20260510053746 | 50 | 348 | 1.0 | 1.0 | 0.00 | 0.00 | 0.00 | 99 | 1010.1 |
| 20260510053242 | 50 | 347 | 0.0 | 0.0 | 0.00 | 0.00 | 0.00 | 99 | 1010.4 |
| 20260510052738 | 50 | 336 | 1.0 | 1.0 | 0.00 | 0.00 | 0.00 | 99 | 1010.5 |
| 20260510052234 | 50 | 349 | 0.0 | 0.0 | 0.00 | 0.00 | 0.00 | 99 | 1010.5 |
| 20260510051730 | 50 | 350 | 0.0 | 0.0 | 0.00 | 0.00 | 0.00 | 99 | 1010.8 |
| 20260510051227 | 50 | 291 | 1.0 | 1.0 | 0.00 | 0.00 | 0.00 | 99 | 1010.7 |
| 20260510050724 | 50 | 338 | 1.0 | 1.0 | 0.00 | 0.00 | 0.00 | 99 | 1010.5 |
| 20260510050221 | 50 | 345 | 0.0 | 0.0 | 0.00 | 0.00 | 0.00 | 99 | 1010.3 |
| 20260510045718 | 50 | 345 | 0.0 | 0.0 | 0.00 | 0.00 | 0.00 | 99 | 1010.4 |
| 20260510045215 | 50 | 345 | 0.0 | 0.0 | 0.00 | 0.00 | 0.00 | 99 | 1010.3 |
| 20260510044711 | 50 | 344 | 0.0 | 0.0 | 0.00 | 0.00 | 0.00 | 99 | 1010.0 |
| 20260510044209 | 50 | 354 | 0.0 | 0.0 | 0.00 | 0.00 | 0.00 | 99 | 1010.3 |
| 20260510043704 | 50 | 358 | 0.0 | 1.0 | 0.00 | 0.00 | 0.00 | 99 | 1010.3 |
| 20260510043201 | 50 | 1 | 0.0 | 0.0 | 0.00 | 0.00 | 0.00 | 99 | 1010.1 |
| 20260510042658 | 50 | 3 | 0.0 | 0.0 | 0.00 | 0.00 | 0.00 | 99 | 1010.5 |
| 20260510042154 | 50 | 355 | 0.0 | 0.0 | 0.00 | 0.00 | 0.00 | 99 | 1010.7 |
| 20260510041651 | 50 | 357 | 0.0 | 0.0 | 0.00 | 0.00 | 0.00 | 99 | 1010.5 |
| 20260510041149 | 50 | 355 | 0.0 | 0.0 | 0.00 | 0.00 | 0.00 | 99 | 1010.7 |
| 20260510040646 | 50 | 0 | 0.0 | 0.0 | 0.00 | 0.00 | 0.00 | 99 | 1010.4 |
| 20260510040142 | 50 | 16 | 0.0 | 0.0 | 0.00 | 0.45 | 0.45 | 99 | 1010.4 |
| 20260510035638 | 49 | 15 | 0.0 | 0.0 | 0.00 | 0.45 | 0.45 | 99 | 1010.7 |
| 20260510035133 | 49 | 26 | 0.0 | 0.0 | 0.00 | 0.45 | 0.45 | 99 | 1010.7 |
| 20260510034630 | 49 | 35 | 0.0 | 0.0 | 0.00 | 0.45 | 0.45 | 99 | 1010.5 |
| 20260510034127 | 50 | 53 | 0.0 | 0.0 | 0.00 | 0.45 | 0.45 | 99 | 1010.7 |
| 20260510033623 | 50 | 41 | 1.0 | 1.0 | 0.00 | 0.45 | 0.45 | 99 | 1010.7 |
| 20260510033121 | 50 | 40 | 1.0 | 1.0 | 0.00 | 0.45 | 0.45 | 99 | 1010.4 |
| 20260510032617 | 50 | 59 | 1.0 | 2.0 | 0.00 | 0.45 | 0.45 | 99 | 1010.5 |
| 20260510032113 | 50 | 3 | 0.0 | 0.0 | 0.00 | 0.45 | 0.45 | 99 | 1010.5 |
| 20260510031608 | 50 | 3 | 0.0 | 0.0 | 0.00 | 0.45 | 0.45 | 99 | 1010.3 |
| 20260510031105 | 50 | 3 | 0.0 | 0.0 | 0.00 | 0.45 | 0.45 | 99 | 1010.9 |
| 20260510030600 | 49 | 3 | 0.0 | 0.0 | 0.00 | 0.45 | 0.45 | 99 | 1010.8 |
| 20260510030057 | 49 | 18 | 0.0 | 0.0 | 0.00 | 0.45 | 0.45 | 99 | 1010.5 |
| 20260510025554 | 49 | 19 | 0.0 | 0.0 | 0.00 | 0.45 | 0.45 | 99 | 1010.4 |
| 20260510025052 | 49 | 20 | 0.0 | 0.0 | 0.00 | 0.45 | 0.45 | 99 | 1010.7 |
| 20260510024548 | 49 | 20 | 0.0 | 0.0 | 0.00 | 0.45 | 0.45 | 99 | 1010.5 |
| 20260510024045 | 49 | 20 | 0.0 | 0.0 | 0.00 | 0.45 | 0.45 | 99 | 1010.7 |
| 20260510023541 | 49 | 20 | 0.0 | 0.0 | 0.00 | 0.45 | 0.45 | 99 | 1010.7 |
| 20260510023039 | 49 | 28 | 0.0 | 0.0 | 0.00 | 0.45 | 0.45 | 99 | 1010.5 |
| 20260510022537 | 49 | 31 | 0.0 | 0.0 | 0.00 | 0.45 | 0.45 | 99 | 1010.3 |
| 20260510022032 | 49 | 28 | 0.0 | 0.0 | 0.00 | 0.45 | 0.45 | 99 | 1010.2 |
| 20260510021529 | 50 | 61 | 1.0 | 2.0 | 0.00 | 0.45 | 0.45 | 99 | 1010.5 |
| 20260510021026 | 50 | 21 | 0.0 | 0.0 | 0.00 | 0.45 | 0.45 | 99 | 1010.2 |
| 20260510020521 | 50 | 51 | 1.0 | 1.0 | 0.00 | 0.45 | 0.45 | 99 | 1010.8 |
| 20260510020016 | 50 | 33 | 0.0 | 0.0 | 0.00 | 0.45 | 0.45 | 99 | 1010.9 |
| 20260510015512 | 50 | 33 | 0.0 | 0.0 | 0.00 | 0.45 | 0.45 | 99 | 1011.0 |
| 20260510015008 | 50 | 33 | 0.0 | 0.0 | 0.00 | 0.45 | 0.45 | 99 | 1011.2 |
| 20260510014505 | 50 | 33 | 0.0 | 0.0 | 0.00 | 0.45 | 0.45 | 99 | 1011.1 |
| 20260510014002 | 50 | 33 | 0.0 | 0.0 | 0.00 | 0.45 | 0.45 | 99 | 1011.1 |
| 20260510013456 | 50 | 33 | 0.0 | 0.0 | 0.00 | 0.45 | 0.45 | 99 | 1011.1 |
| 20260510012953 | 49 | 33 | 0.0 | 0.0 | 0.00 | 0.45 | 0.45 | 99 | 1011.1 |
| 20260510012447 | 49 | 33 | 0.0 | 0.0 | 0.00 | 0.45 | 0.45 | 99 | 1011.3 |
| 20260510011942 | 49 | 33 | 0.0 | 0.0 | 0.00 | 0.45 | 0.45 | 99 | 1011.1 |
| 20260510011437 | 49 | 33 | 1.0 | 1.0 | 0.00 | 0.45 | 0.45 | 99 | 1011.0 |
| 20260510010934 | 49 | 33 | 0.0 | 0.0 | 0.00 | 0.45 | 0.45 | 99 | 1010.9 |
| 20260510010432 | 49 | 33 | 0.0 | 0.0 | 0.00 | 0.45 | 0.45 | 99 | 1010.8 |
| 20260510005928 | 49 | 33 | 0.0 | 0.0 | 0.00 | 0.45 | 0.45 | 99 | 1010.7 |
| 20260510005424 | 49 | 33 | 0.0 | 0.0 | 0.00 | 0.45 | 0.45 | 99 | 1010.4 |
| 20260510004921 | 49 | 33 | 0.0 | 0.0 | 0.00 | 0.45 | 0.45 | 99 | 1010.3 |
| 20260510004419 | 49 | 33 | 0.0 | 0.0 | 0.00 | 0.45 | 0.45 | 99 | 1010.3 |
| 20260510003916 | 49 | 33 | 0.0 | 0.0 | 0.00 | 0.45 | 0.45 | 99 | 1010.1 |
| 20260510003413 | 49 | 33 | 0.0 | 0.0 | 0.00 | 0.45 | 0.45 | 99 | 1010.2 |
| 20260510002913 | 49 | 33 | 0.0 | 0.0 | 0.00 | 0.45 | 0.45 | 99 | 1010.3 |
| 20260510002410 | 49 | 33 | 0.0 | 0.0 | 0.00 | 0.45 | 0.45 | 99 | 1010.0 |
| 20260510001906 | 49 | 33 | 0.0 | 0.0 | 0.00 | 0.45 | 0.45 | 99 | 1010.2 |
| 20260510001404 | 49 | 33 | 0.0 | 0.0 | 0.00 | 0.45 | 0.45 | 99 | 1010.3 |
| 20260510000900 | 49 | 34 | 0.0 | 0.0 | 0.00 | 0.45 | 0.45 | 99 | 1010.2 |
| 20260510000357 | 49 | 34 | 0.0 | 0.0 | 0.00 | 0.45 | 0.45 | 99 | 1010.2 |
| 20260509235853 | 49 | 38 | 0.0 | 0.0 | 0.00 | 0.45 | 0.45 | 99 | 1010.4 |
| 20260509235350 | 49 | 38 | 0.0 | 0.0 | 0.00 | 0.45 | 0.45 | 99 | 1010.3 |
| 20260509234847 | 49 | 37 | 0.0 | 0.0 | 0.00 | 0.45 | 0.45 | 99 | 1010.2 |
| 20260509234344 | 49 | 35 | 1.0 | 1.0 | 0.00 | 0.45 | 0.45 | 99 | 1010.2 |
| 20260509233842 | 49 | 41 | 0.0 | 0.0 | 0.00 | 0.45 | 0.45 | 99 | 1010.3 |
| 20260509233339 | 49 | 43 | 0.0 | 1.0 | 0.00 | 0.45 | 0.45 | 99 | 1010.2 |
| 20260509232834 | 49 | 28 | 0.0 | 0.0 | 0.00 | 0.45 | 0.45 | 99 | 1010.4 |
| 20260509232333 | 49 | 28 | 0.0 | 0.0 | 0.00 | 0.45 | 0.45 | 99 | 1010.5 |
| 20260509231828 | 49 | 28 | 0.0 | 0.0 | 0.00 | 0.45 | 0.45 | 99 | 1010.1 |
| 20260509231326 | 49 | 30 | 0.0 | 0.0 | 0.00 | 0.45 | 0.45 | 99 | 1010.3 |
| 20260509230823 | 49 | 63 | 1.0 | 1.0 | 0.00 | 0.45 | 0.45 | 99 | 1010.1 |
| 20260509230320 | 49 | 30 | 0.0 | 0.0 | 0.05 | 0.45 | 0.45 | 99 | 1009.9 |
| 20260509225815 | 49 | 25 | 0.0 | 0.0 | 0.05 | 0.45 | 0.45 | 99 | 1009.9 |
| 20260509225312 | 49 | 26 | 0.0 | 0.0 | 0.00 | 0.44 | 0.44 | 99 | 1010.2 |
| 20260509224808 | 49 | 26 | 0.0 | 0.0 | 0.00 | 0.44 | 0.44 | 99 | 1010.1 |
| 20260509224305 | 49 | 37 | 0.0 | 0.0 | 0.00 | 0.44 | 0.44 | 99 | 1010.2 |
| 20260509223801 | 49 | 21 | 0.0 | 0.0 | 0.00 | 0.44 | 0.44 | 99 | 1010.2 |
| 20260509223258 | 49 | 31 | 0.0 | 0.0 | 0.07 | 0.44 | 0.44 | 99 | 1010.1 |
| 20260509222755 | 49 | 86 | 1.0 | 2.0 | 0.07 | 0.44 | 0.44 | 99 | 1010.3 |
| 20260509222250 | 49 | 18 | 0.0 | 0.0 | 0.00 | 0.43 | 0.43 | 99 | 1010.2 |
| 20260509221746 | 49 | 13 | 0.0 | 0.0 | 0.00 | 0.43 | 0.43 | 99 | 1010.3 |
| 20260509221243 | 49 | 9 | 0.0 | 0.0 | 0.00 | 0.43 | 0.43 | 99 | 1010.4 |
| 20260509220739 | 48 | 9 | 0.0 | 0.0 | 0.00 | 0.43 | 0.43 | 99 | 1010.3 |
| 20260509220236 | 48 | 8 | 0.0 | 1.0 | 0.00 | 0.43 | 0.43 | 99 | 1010.3 |
| 20260509215731 | 48 | 17 | 0.0 | 0.0 | 0.00 | 0.43 | 0.43 | 99 | 1010.3 |
| 20260509215228 | 48 | 16 | 0.0 | 0.0 | 0.05 | 0.43 | 0.43 | 99 | 1010.1 |
| 20260509214725 | 48 | 29 | 0.0 | 0.0 | 0.05 | 0.43 | 0.43 | 99 | 1010.3 |
| 20260509214222 | 48 | 54 | 1.0 | 1.0 | 0.00 | 0.42 | 0.42 | 99 | 1010.3 |
| 20260509213719 | 48 | 53 | 1.0 | 1.0 | 0.07 | 0.42 | 0.42 | 99 | 1010.3 |
| 20260509213214 | 48 | 91 | 2.0 | 2.0 | 0.07 | 0.41 | 0.41 | 99 | 1010.4 |
| 20260509212712 | 48 | 28 | 0.0 | 0.0 | 0.07 | 0.41 | 0.41 | 99 | 1010.4 |
| 20260509212209 | 48 | 47 | 0.0 | 1.0 | 0.05 | 0.40 | 0.40 | 99 | 1010.4 |
| 20260509211705 | 48 | 38 | 0.0 | 0.0 | 0.05 | 0.40 | 0.40 | 99 | 1010.7 |
| 20260509211202 | 48 | 35 | 0.0 | 0.0 | 0.00 | 0.39 | 0.39 | 99 | 1010.8 |
| 20260509210658 | 48 | 38 | 0.0 | 1.0 | 0.07 | 0.39 | 0.39 | 99 | 1010.9 |
| 20260509210156 | 48 | 28 | 0.0 | 0.0 | 0.07 | 0.39 | 0.39 | 99 | 1011.0 |
| 20260509205650 | 48 | 29 | 0.0 | 0.0 | 0.05 | 0.38 | 0.38 | 99 | 1010.8 |
| 20260509205150 | 48 | 37 | 0.0 | 1.0 | 0.05 | 0.38 | 0.38 | 99 | 1010.9 |
| 20260509204647 | 48 | 20 | 0.0 | 0.0 | 0.07 | 0.37 | 0.37 | 99 | 1010.8 |
| 20260509204143 | 48 | 26 | 0.0 | 0.0 | 0.12 | 0.37 | 0.37 | 99 | 1011.0 |
| 20260509203639 | 48 | 46 | 1.0 | 1.0 | 0.05 | 0.36 | 0.36 | 99 | 1011.2 |
| 20260509203138 | 48 | 37 | 0.0 | 1.0 | 0.07 | 0.35 | 0.35 | 99 | 1011.0 |
| 20260509202637 | 48 | 33 | 0.0 | 0.0 | 0.07 | 0.35 | 0.35 | 99 | 1011.0 |
| 20260509202133 | 48 | 49 | 1.0 | 1.0 | 0.00 | 0.34 | 0.34 | 99 | 1011.4 |
| 20260509201628 | 48 | 32 | 0.0 | 0.0 | 0.05 | 0.34 | 0.34 | 99 | 1011.5 |
| 20260509201126 | 48 | 29 | 0.0 | 0.0 | 0.05 | 0.34 | 0.34 | 99 | 1011.3 |
| 20260509200621 | 48 | 35 | 0.0 | 1.0 | 0.00 | 0.33 | 0.33 | 99 | 1011.5 |
| 20260509200117 | 48 | 31 | 0.0 | 0.0 | 0.07 | 0.33 | 0.33 | 99 | 1011.4 |
| 20260509195613 | 48 | 51 | 1.0 | 1.0 | 0.07 | 0.33 | 0.33 | 99 | 1011.6 |
| 20260509195108 | 48 | 34 | 0.0 | 0.0 | 0.05 | 0.32 | 0.32 | 99 | 1011.8 |
| 20260509194607 | 48 | 29 | 0.0 | 0.0 | 0.12 | 0.32 | 0.32 | 99 | 1011.6 |
| 20260509194105 | 48 | 35 | 0.0 | 0.0 | 0.07 | 0.31 | 0.31 | 99 | 1011.8 |
| 20260509193601 | 48 | 29 | 1.0 | 1.0 | 0.07 | 0.30 | 0.30 | 99 | 1011.7 |
| 20260509193057 | 48 | 98 | 2.0 | 2.0 | 0.07 | 0.30 | 0.30 | 99 | 1011.6 |
| 20260509192554 | 48 | 25 | 2.0 | 2.0 | 0.00 | 0.29 | 0.29 | 99 | 1011.4 |
| 20260509192048 | 48 | 31 | 1.0 | 1.0 | 0.05 | 0.29 | 0.29 | 99 | 1011.4 |
| 20260509191543 | 48 | 39 | 0.0 | 1.0 | 0.05 | 0.29 | 0.29 | 99 | 1011.5 |
| 20260509191039 | 48 | 36 | 1.0 | 1.0 | 0.00 | 0.28 | 0.28 | 99 | 1011.3 |
| 20260509190536 | 48 | 40 | 1.0 | 2.0 | 0.00 | 0.28 | 0.28 | 99 | 1011.4 |
| 20260509190034 | 47 | 36 | 1.0 | 1.0 | 0.00 | 0.28 | 0.28 | 99 | 1011.4 |
| 20260509185531 | 48 | 42 | 1.0 | 1.0 | 0.00 | 0.28 | 0.28 | 99 | 1011.8 |
| 20260509185027 | 48 | 31 | 0.0 | 1.0 | 0.00 | 0.28 | 0.28 | 99 | 1011.5 |
| 20260509184526 | 47 | 39 | 1.0 | 1.0 | 0.00 | 0.28 | 0.28 | 99 | 1011.6 |
| 20260509184021 | 48 | 17 | 3.0 | 5.0 | 0.00 | 0.28 | 0.28 | 99 | 1011.3 |
| 20260509183517 | 47 | 33 | 1.0 | 1.0 | 0.00 | 0.28 | 0.28 | 99 | 1011.4 |
| 20260509183013 | 48 | 18 | 0.0 | 0.0 | 0.00 | 0.28 | 0.28 | 99 | 1011.2 |
| 20260509182509 | 48 | 39 | 0.0 | 1.0 | 0.00 | 0.28 | 0.28 | 99 | 1011.5 |
| 20260509182007 | 47 | 43 | 2.0 | 2.0 | 0.07 | 0.28 | 0.28 | 99 | 1011.4 |
| 20260509181505 | 48 | 22 | 0.0 | 1.0 | 0.07 | 0.28 | 0.28 | 99 | 1011.7 |
| 20260509181002 | 47 | 35 | 0.0 | 0.0 | 0.00 | 0.27 | 0.27 | 99 | 1011.8 |
| 20260509180457 | 48 | 30 | 0.0 | 1.0 | 0.00 | 0.27 | 0.27 | 99 | 1011.7 |
| 20260509175955 | 47 | 50 | 1.0 | 2.0 | 0.00 | 0.27 | 0.27 | 99 | 1011.8 |
| 20260509175451 | 47 | 16 | 2.0 | 2.0 | 0.00 | 0.27 | 0.27 | 99 | 1011.9 |